createdAt,value
2017-07-15T00:04:56.878Z,0
2017-07-15T00:15:11.666Z,0
2017-07-15T00:25:27.357Z,0
2017-07-15T00:35:41.992Z,0
2017-07-15T00:45:56.908Z,0
2017-07-15T00:56:11.382Z,0
2017-07-15T01:06:25.991Z,0
2017-07-15T01:16:39.667Z,0
2017-07-15T01:26:54.290Z,0
2017-07-15T01:37:08.311Z,0
2017-07-15T01:47:22.974Z,0
2017-07-15T01:57:37.164Z,0
2017-07-15T02:07:52.466Z,0
2017-07-15T02:18:06.466Z,0
2017-07-15T02:28:20.700Z,0
2017-07-15T02:38:35.006Z,0
2017-07-15T02:48:50.487Z,0
2017-07-15T02:59:05.535Z,0
2017-07-15T03:09:19.345Z,0
2017-07-15T03:19:33.721Z,0
2017-07-15T03:29:47.853Z,5
2017-07-15T03:40:03.619Z,10
2017-07-15T03:50:18.479Z,20
2017-07-15T04:00:32.492Z,50
2017-07-15T04:10:47.077Z,85
2017-07-15T04:21:00.846Z,95
2017-07-15T04:31:16.527Z,60
2017-07-15T04:41:31.246Z,130
2017-07-15T04:51:45.454Z,145
2017-07-15T05:01:59.932Z,210
2017-07-15T05:12:14.949Z,225
2017-07-15T05:22:30.501Z,180
2017-07-15T05:32:45.709Z,160
2017-07-15T05:43:00.764Z,205
2017-07-15T05:53:15.579Z,330
2017-07-15T06:03:30.375Z,440
2017-07-15T06:13:44.352Z,460
2017-07-15T06:23:58.146Z,350
2017-07-15T06:34:12.348Z,370
2017-07-15T06:44:26.401Z,405
2017-07-15T06:54:41.134Z,375
2017-07-15T07:04:56.034Z,430
2017-07-15T07:15:11.603Z,475
2017-07-15T07:25:26.031Z,405
2017-07-15T07:35:40.779Z,515
2017-07-15T07:45:56.271Z,790
2017-07-15T07:56:11.600Z,840
2017-07-15T08:06:26.605Z,2060
2017-07-15T08:16:40.949Z,915
2017-07-15T08:26:56.682Z,490
2017-07-15T08:37:11.542Z,425
2017-07-15T08:47:26.357Z,640
2017-07-15T08:57:40.798Z,1055
2017-07-15T09:07:55.673Z,920
2017-07-15T09:18:09.676Z,1505
2017-07-15T09:28:25.123Z,990
2017-07-15T09:38:40.207Z,645
2017-07-15T09:48:54.194Z,915
2017-07-15T09:59:08.305Z,1415
2017-07-15T10:09:23.347Z,1635
2017-07-15T10:19:38.919Z,975
2017-07-15T10:29:52.915Z,770
2017-07-15T10:40:07.451Z,1085
2017-07-15T10:50:21.749Z,1095
2017-07-15T11:00:36.234Z,835
2017-07-15T11:10:50.304Z,360
2017-07-15T11:21:04.317Z,515
2017-07-15T11:31:18.398Z,1135
2017-07-15T11:41:32.826Z,935
2017-07-15T11:51:48.411Z,1255
2017-07-15T12:02:04.072Z,1385
2017-07-15T12:12:19.409Z,1050
2017-07-15T12:22:34.887Z,1370
2017-07-15T12:32:50.048Z,2200
2017-07-15T12:43:04.372Z,1075
2017-07-15T12:53:19.825Z,665
2017-07-15T13:03:34.517Z,680
2017-07-15T13:13:50.341Z,1400
2017-07-15T13:24:06.065Z,1165
2017-07-15T13:34:21.197Z,975
2017-07-15T13:44:36.385Z,865
2017-07-15T13:54:51.988Z,1040
2017-07-15T14:05:06.834Z,985
2017-07-15T14:15:22.721Z,1125
2017-07-15T14:25:37.834Z,865
2017-07-15T14:35:53.119Z,1045
2017-07-15T14:46:07.771Z,1415
2017-07-15T14:56:22.397Z,1265
2017-07-15T15:06:38.253Z,765
2017-07-15T15:16:52.940Z,710
2017-07-15T15:27:07.869Z,685
2017-07-15T15:37:23.030Z,615
2017-07-15T15:47:38.506Z,1395
2017-07-15T15:57:53.012Z,730
2017-07-15T16:08:08.240Z,985
2017-07-15T16:18:22.146Z,945
2017-07-15T16:28:36.204Z,1150
2017-07-15T16:38:50.316Z,760
2017-07-15T16:49:05.210Z,635
2017-07-15T16:59:19.618Z,620
2017-07-15T17:09:33.531Z,440
2017-07-15T17:19:47.693Z,405
2017-07-15T17:30:02.161Z,300
2017-07-15T17:40:16.727Z,175
2017-07-15T17:50:31.594Z,200
2017-07-15T18:00:46.449Z,195
2017-07-15T18:11:00.321Z,135
2017-07-15T18:21:15.463Z,125
2017-07-15T18:31:30.422Z,130
2017-07-15T18:41:45.975Z,105
2017-07-15T18:52:00.128Z,90
2017-07-15T19:02:14.472Z,65
2017-07-15T19:12:29.289Z,45
2017-07-15T19:22:43.878Z,25
2017-07-15T19:32:58.110Z,15
2017-07-15T19:43:12.205Z,5
2017-07-15T19:53:26.051Z,0
2017-07-15T20:03:40.556Z,0
2017-07-15T20:13:55.118Z,0
2017-07-15T20:24:09.595Z,0
2017-07-15T20:34:23.428Z,0
2017-07-15T20:44:38.860Z,0
2017-07-15T20:54:54.044Z,0
2017-07-15T21:05:08.584Z,0
2017-07-15T21:15:22.696Z,0
2017-07-15T21:25:37.870Z,0
2017-07-15T21:35:52.493Z,0
2017-07-15T21:46:07.188Z,0
2017-07-15T21:56:21.719Z,0
2017-07-15T22:06:36.141Z,0
2017-07-15T22:16:50.682Z,0
2017-07-15T22:27:05.474Z,0
2017-07-15T22:37:19.288Z,0
2017-07-15T22:47:33.665Z,0
2017-07-15T22:57:49.207Z,0
2017-07-15T23:08:03.391Z,0
2017-07-15T23:18:18.040Z,0
2017-07-15T23:28:32.714Z,0
2017-07-15T23:38:47.753Z,0
2017-07-15T23:49:02.735Z,0
2017-07-15T23:59:16.681Z,0
